sensor_id;sensor_type;location;lat;lon;timestamp;pressure;altitude;pressure_sealevel;temperature;humidity
71424;BME280;59240;51.370;-0.486;2022-12-07T00:01:27;102319.66;;;4.90;80.97
71424;BME280;59240;51.370;-0.486;2022-12-07T00:03:56;102322.19;;;4.88;81.37
71424;BME280;59240;51.370;-0.486;2022-12-07T00:06:27;102331.69;;;4.89;80.83
71424;BME280;59240;51.370;-0.486;2022-12-07T00:08:53;102312.53;;;4.81;81.31
71424;BME280;59240;51.370;-0.486;2022-12-07T00:11:22;102322.19;;;4.88;80.51
71424;BME280;59240;51.370;-0.486;2022-12-07T00:13:54;102329.09;;;4.89;81.37
71424;BME280;59240;51.370;-0.486;2022-12-07T00:16:22;102320.53;;;4.90;80.47
71424;BME280;59240;51.370;-0.486;2022-12-07T00:18:49;102310.13;;;4.87;81.90
71424;BME280;59240;51.370;-0.486;2022-12-07T00:21:18;102313.59;;;4.89;81.13
71424;BME280;59240;51.370;-0.486;2022-12-07T00:23:47;102299.53;;;4.78;80.38
71424;BME280;59240;51.370;-0.486;2022-12-07T00:26:20;102318.63;;;4.83;80.48
71424;BME280;59240;51.370;-0.486;2022-12-07T00:28:48;102313.34;;;4.80;80.54
71424;BME280;59240;51.370;-0.486;2022-12-07T00:31:17;102283.59;;;4.60;80.64
71424;BME280;59240;51.370;-0.486;2022-12-07T00:33:44;102316.66;;;4.75;81.19
71424;BME280;59240;51.370;-0.486;2022-12-07T00:36:17;102313.13;;;4.71;81.05
71424;BME280;59240;51.370;-0.486;2022-12-07T00:38:52;102311.38;;;4.70;80.64
71424;BME280;59240;51.370;-0.486;2022-12-07T00:41:21;102306.22;;;4.70;80.91
71424;BME280;59240;51.370;-0.486;2022-12-07T00:43:49;102309.69;;;4.72;81.84
71424;BME280;59240;51.370;-0.486;2022-12-07T00:46:16;102313.13;;;4.71;81.17
71424;BME280;59240;51.370;-0.486;2022-12-07T00:48:43;102300.97;;;4.67;81.38
71424;BME280;59240;51.370;-0.486;2022-12-07T00:51:11;102311.41;;;4.72;81.01
71424;BME280;59240;51.370;-0.486;2022-12-07T00:53:39;102307.09;;;4.71;81.76
71424;BME280;59240;51.370;-0.486;2022-12-07T00:56:08;102307.97;;;4.71;82.00
71424;BME280;59240;51.370;-0.486;2022-12-07T00:58:35;102295.88;;;4.70;81.61
71424;BME280;59240;51.370;-0.486;2022-12-07T01:01:05;102302.91;;;4.74;81.41
71424;BME280;59240;51.370;-0.486;2022-12-07T01:03:31;102302.03;;;4.74;81.09
71424;BME280;59240;51.370;-0.486;2022-12-07T01:05:59;102304.63;;;4.75;80.62
71424;BME280;59240;51.370;-0.486;2022-12-07T01:08:26;102300.41;;;4.79;81.12
71424;BME280;59240;51.370;-0.486;2022-12-07T01:11:04;102304.66;;;4.77;80.92
71424;BME280;59240;51.370;-0.486;2022-12-07T01:13:33;102266.31;;;4.59;80.88
71424;BME280;59240;51.370;-0.486;2022-12-07T01:16:03;102295.94;;;4.73;80.45
71424;BME280;59240;51.370;-0.486;2022-12-07T01:18:33;102284.34;;;4.57;81.53
71424;BME280;59240;51.370;-0.486;2022-12-07T01:21:03;102289.34;;;4.51;81.68
71424;BME280;59240;51.370;-0.486;2022-12-07T01:23:31;102269.19;;;4.36;81.49
71424;BME280;59240;51.370;-0.486;2022-12-07T01:26:00;102288.41;;;4.48;82.07
71424;BME280;59240;51.370;-0.486;2022-12-07T01:28:27;102291.75;;;4.45;81.75
71424;BME280;59240;51.370;-0.486;2022-12-07T01:30:59;102296.13;;;4.46;81.11
71424;BME280;59240;51.370;-0.486;2022-12-07T01:33:28;102300.38;;;4.46;81.44
71424;BME280;59240;51.370;-0.486;2022-12-07T01:38:33;102293.47;;;4.45;81.76
71424;BME280;59240;51.370;-0.486;2022-12-07T01:41:01;102286.50;;;4.41;81.59
71424;BME280;59240;51.370;-0.486;2022-12-07T01:43:30;102294.41;;;4.47;81.95
71424;BME280;59240;51.370;-0.486;2022-12-07T01:45:57;102295.31;;;4.49;81.58
71424;BME280;59240;51.370;-0.486;2022-12-07T01:48:41;102297.88;;;4.47;81.62
71424;BME280;59240;51.370;-0.486;2022-12-07T01:51:10;102290.91;;;4.45;81.80
71424;BME280;59240;51.370;-0.486;2022-12-07T01:53:41;102296.88;;;4.44;81.97
71424;BME280;59240;51.370;-0.486;2022-12-07T01:56:11;102264.50;;;4.23;81.16
71424;BME280;59240;51.370;-0.486;2022-12-07T01:58:40;102294.91;;;4.33;81.28
71424;BME280;59240;51.370;-0.486;2022-12-07T02:01:07;102260.78;;;4.12;81.39
71424;BME280;59240;51.370;-0.486;2022-12-07T02:03:44;102304.38;;;4.34;81.42
71424;BME280;59240;51.370;-0.486;2022-12-07T02:06:14;102266.91;;;4.17;81.28
71424;BME280;59240;51.370;-0.486;2022-12-07T02:08:43;102282.50;;;4.20;81.47
71424;BME280;59240;51.370;-0.486;2022-12-07T02:11:10;102302.50;;;4.29;80.91
71424;BME280;59240;51.370;-0.486;2022-12-07T02:13:39;102292.88;;;4.23;81.45
71424;BME280;59240;51.370;-0.486;2022-12-07T02:30:42;102286.50;;;4.10;80.35
71424;BME280;59240;51.370;-0.486;2022-12-07T02:33:17;102258.56;;;3.96;79.84
71424;BME280;59240;51.370;-0.486;2022-12-07T02:35:57;102295.81;;;4.05;80.65
71424;BME280;59240;51.370;-0.486;2022-12-07T02:38:37;102281.88;;;3.99;80.84
71424;BME280;59240;51.370;-0.486;2022-12-07T02:44:02;102296.19;;;3.89;81.81
71424;BME280;59240;51.370;-0.486;2022-12-07T02:46:34;102287.38;;;4.11;80.57
71424;BME280;59240;51.370;-0.486;2022-12-07T02:49:02;102281.63;;;4.20;80.34
71424;BME280;59240;51.370;-0.486;2022-12-07T02:51:31;102278.97;;;4.18;80.60
71424;BME280;59240;51.370;-0.486;2022-12-07T02:53:58;102282.38;;;4.17;79.75
71424;BME280;59240;51.370;-0.486;2022-12-07T02:56:52;102279.91;;;4.20;80.64
71424;BME280;59240;51.370;-0.486;2022-12-07T03:02:48;102276.38;;;4.18;80.66
71424;BME280;59240;51.370;-0.486;2022-12-07T03:10:27;102271.16;;;4.15;80.80
71424;BME280;59240;51.370;-0.486;2022-12-07T03:18:13;102268.41;;;4.09;80.58
71424;BME280;59240;51.370;-0.486;2022-12-07T03:20:43;102270.16;;;4.10;80.48
71424;BME280;59240;51.370;-0.486;2022-12-07T03:23:12;102267.59;;;4.11;80.04
71424;BME280;59240;51.370;-0.486;2022-12-07T03:25:41;102260.66;;;4.09;80.44
71424;BME280;59240;51.370;-0.486;2022-12-07T03:28:09;102268.59;;;4.15;80.00
71424;BME280;59240;51.370;-0.486;2022-12-07T03:33:31;102251.13;;;4.05;80.49
71424;BME280;59240;51.370;-0.486;2022-12-07T03:36:37;102265.88;;;4.10;80.60
71424;BME280;59240;51.370;-0.486;2022-12-07T03:39:31;102245.69;;;3.96;80.65
71424;BME280;59240;51.370;-0.486;2022-12-07T03:42:01;102250.13;;;4.01;80.19
71424;BME280;59240;51.370;-0.486;2022-12-07T03:44:28;102264.81;;;4.04;80.20
71424;BME280;59240;51.370;-0.486;2022-12-07T03:47:15;102235.19;;;3.90;80.52
71424;BME280;59240;51.370;-0.486;2022-12-07T03:49:52;102254.44;;;4.01;80.80
71424;BME280;59240;51.370;-0.486;2022-12-07T03:52:31;102257.03;;;4.02;80.44
71424;BME280;59240;51.370;-0.486;2022-12-07T03:57:39;102250.09;;;4.00;79.76
71424;BME280;59240;51.370;-0.486;2022-12-07T04:00:10;102254.25;;;3.95;79.87
71424;BME280;59240;51.370;-0.486;2022-12-07T04:02:38;102252.41;;;3.91;79.86
71424;BME280;59240;51.370;-0.486;2022-12-07T04:05:05;102243.75;;;3.89;79.59
71424;BME280;59240;51.370;-0.486;2022-12-07T04:07:31;102244.53;;;3.84;79.72
71424;BME280;59240;51.370;-0.486;2022-12-07T04:09:58;102233.16;;;3.78;79.56
71424;BME280;59240;51.370;-0.486;2022-12-07T04:12:26;102243.50;;;3.79;79.91
71424;BME280;59240;51.370;-0.486;2022-12-07T04:14:52;102240.75;;;3.73;80.45
71424;BME280;59240;51.370;-0.486;2022-12-07T04:17:21;102231.84;;;3.64;80.32
71424;BME280;59240;51.370;-0.486;2022-12-07T04:19:48;102253.38;;;3.64;80.42
71424;BME280;59240;51.370;-0.486;2022-12-07T04:22:15;102242.94;;;3.61;80.96
71424;BME280;59240;51.370;-0.486;2022-12-07T04:24:41;102245.47;;;3.60;80.39
71424;BME280;59240;51.370;-0.486;2022-12-07T04:27:08;102255.03;;;3.64;81.01
71424;BME280;59240;51.370;-0.486;2022-12-07T04:29:34;102222.72;;;3.45;80.65
71424;BME280;59240;51.370;-0.486;2022-12-07T04:32:01;102253.19;;;3.58;81.12
71424;BME280;59240;51.370;-0.486;2022-12-07T04:34:27;102223.56;;;3.44;80.85
71424;BME280;59240;51.370;-0.486;2022-12-07T04:36:54;102256.75;;;3.63;80.82
71424;BME280;59240;51.370;-0.486;2022-12-07T04:39:27;102241.13;;;3.57;81.28
71424;BME280;59240;51.370;-0.486;2022-12-07T04:41:54;102244.81;;;3.65;80.51
71424;BME280;59240;51.370;-0.486;2022-12-07T04:44:22;102246.44;;;3.63;81.42
71424;BME280;59240;51.370;-0.486;2022-12-07T04:46:50;102243.06;;;3.64;81.40
71424;BME280;59240;51.370;-0.486;2022-12-07T04:49:18;102245.66;;;3.66;80.87
71424;BME280;59240;51.370;-0.486;2022-12-07T04:51:45;102243.06;;;3.64;81.57
71424;BME280;59240;51.370;-0.486;2022-12-07T04:54:12;102245.56;;;3.63;81.56
71424;BME280;59240;51.370;-0.486;2022-12-07T04:56:39;102250.94;;;3.70;81.68
71424;BME280;59240;51.370;-0.486;2022-12-07T04:59:06;102245.84;;;3.72;80.89
71424;BME280;59240;51.370;-0.486;2022-12-07T05:01:33;102242.41;;;3.71;81.22
71424;BME280;59240;51.370;-0.486;2022-12-07T05:04:00;102240.63;;;3.70;81.72
71424;BME280;59240;51.370;-0.486;2022-12-07T05:06:26;102256.34;;;3.78;81.44
71424;BME280;59240;51.370;-0.486;2022-12-07T05:08:53;102245.13;;;3.77;81.77
71424;BME280;59240;51.370;-0.486;2022-12-07T05:11:20;102239.22;;;3.80;81.49
71424;BME280;59240;51.370;-0.486;2022-12-07T05:14:10;102242.69;;;3.82;81.71
71424;BME280;59240;51.370;-0.486;2022-12-07T05:16:38;102247.03;;;3.83;80.93
71424;BME280;59240;51.370;-0.486;2022-12-07T05:19:05;102240.16;;;3.83;81.19
71424;BME280;59240;51.370;-0.486;2022-12-07T05:21:32;102242.69;;;3.82;81.58
71424;BME280;59240;51.370;-0.486;2022-12-07T05:23:59;102251.50;;;3.89;81.60
71424;BME280;59240;51.370;-0.486;2022-12-07T05:26:26;102242.09;;;3.91;81.10
71424;BME280;59240;51.370;-0.486;2022-12-07T05:28:54;102214.06;;;3.71;81.70
71424;BME280;59240;51.370;-0.486;2022-12-07T05:31:21;102238.53;;;3.86;81.58
71424;BME280;59240;51.370;-0.486;2022-12-07T05:33:48;102242.09;;;3.91;81.11
71424;BME280;59240;51.370;-0.486;2022-12-07T05:36:15;102233.44;;;3.89;81.59
71424;BME280;59240;51.370;-0.486;2022-12-07T05:38:42;102233.31;;;3.84;81.48
71424;BME280;59240;51.370;-0.486;2022-12-07T05:41:12;102228.22;;;3.86;81.88
71424;BME280;59240;51.370;-0.486;2022-12-07T05:44:00;102214.31;;;3.80;81.79
71424;BME280;59240;51.370;-0.486;2022-12-07T05:46:26;102221.47;;;3.91;81.95
71424;BME280;59240;51.370;-0.486;2022-12-07T05:48:53;102231.88;;;3.94;81.13
71424;BME280;59240;51.370;-0.486;2022-12-07T05:51:20;102234.47;;;3.94;81.68
71424;BME280;59240;51.370;-0.486;2022-12-07T05:53:46;102230.22;;;3.96;81.58
71424;BME280;59240;51.370;-0.486;2022-12-07T05:56:14;102231.03;;;3.95;81.76
71424;BME280;59240;51.370;-0.486;2022-12-07T05:58:40;102235.41;;;3.97;81.93
71424;BME280;59240;51.370;-0.486;2022-12-07T06:01:25;102231.25;;;4.02;81.99
71424;BME280;59240;51.370;-0.486;2022-12-07T06:03:52;102212.06;;;3.91;81.68
71424;BME280;59240;51.370;-0.486;2022-12-07T06:06:19;102233.78;;;4.01;81.71
71424;BME280;59240;51.370;-0.486;2022-12-07T06:08:46;102224.31;;;4.00;81.73
71424;BME280;59240;51.370;-0.486;2022-12-07T06:11:12;102221.75;;;4.00;82.18
71424;BME280;59240;51.370;-0.486;2022-12-07T06:13:57;102228.03;;;4.09;81.49
71424;BME280;59240;51.370;-0.486;2022-12-07T06:16:24;102215.97;;;4.08;82.00
71424;BME280;59240;51.370;-0.486;2022-12-07T06:18:50;102232.47;;;4.15;82.21
71424;BME280;59240;51.370;-0.486;2022-12-07T06:21:17;102208.09;;;4.04;81.89
71424;BME280;59240;51.370;-0.486;2022-12-07T06:23:43;102232.66;;;4.21;81.88
71424;BME280;59240;51.370;-0.486;2022-12-07T06:26:10;102220.31;;;4.11;81.38
71424;BME280;59240;51.370;-0.486;2022-12-07T06:28:36;102232.53;;;4.18;81.37
71424;BME280;59240;51.370;-0.486;2022-12-07T06:31:03;102235.97;;;4.17;81.46
71424;BME280;59240;51.370;-0.486;2022-12-07T06:33:34;102232.25;;;4.07;81.26
71424;BME280;59240;51.370;-0.486;2022-12-07T06:36:01;102224.44;;;4.04;81.04
71424;BME280;59240;51.370;-0.486;2022-12-07T06:38:27;102247.03;;;4.13;80.90
71424;BME280;59240;51.370;-0.486;2022-12-07T06:40:54;102239.19;;;4.10;81.73
71424;BME280;59240;51.370;-0.486;2022-12-07T06:43:21;102217.34;;;3.97;81.14
71424;BME280;59240;51.370;-0.486;2022-12-07T06:45:47;102243.66;;;4.16;82.01
71424;BME280;59240;51.370;-0.486;2022-12-07T06:48:14;102245.38;;;4.15;81.94
71424;BME280;59240;51.370;-0.486;2022-12-07T06:50:41;102242.88;;;4.18;81.03
71424;BME280;59240;51.370;-0.486;2022-12-07T06:53:07;102201.81;;;3.94;80.99
71424;BME280;59240;51.370;-0.486;2022-12-07T06:55:34;102242.81;;;4.17;81.50
71424;BME280;59240;51.370;-0.486;2022-12-07T06:58:01;102246.38;;;4.20;80.98
71424;BME280;59240;51.370;-0.486;2022-12-07T07:00:29;102233.28;;;4.13;81.62
71424;BME280;59240;51.370;-0.486;2022-12-07T07:02:55;102239.31;;;4.13;81.27
71424;BME280;59240;51.370;-0.486;2022-12-07T07:05:22;102229.50;;;4.01;80.91
71424;BME280;59240;51.370;-0.486;2022-12-07T07:07:49;102221.75;;;4.00;80.62
71424;BME280;59240;51.370;-0.486;2022-12-07T07:10:36;102233.84;;;4.02;81.45
71424;BME280;59240;51.370;-0.486;2022-12-07T07:13:03;102246.09;;;4.11;81.18
71424;BME280;59240;51.370;-0.486;2022-12-07T07:15:30;102237.28;;;4.03;81.15
71424;BME280;59240;51.370;-0.486;2022-12-07T07:17:56;102230.50;;;4.05;81.63
71424;BME280;59240;51.370;-0.486;2022-12-07T07:20:29;102242.53;;;4.06;81.07
71424;BME280;59240;51.370;-0.486;2022-12-07T07:22:56;102250.38;;;4.10;81.29
71424;BME280;59240;51.370;-0.486;2022-12-07T07:25:23;102221.63;;;3.97;81.13
71424;BME280;59240;51.370;-0.486;2022-12-07T07:27:49;102246.03;;;4.08;81.24
71424;BME280;59240;51.370;-0.486;2022-12-07T07:30:16;102252.09;;;4.10;81.12
71424;BME280;59240;51.370;-0.486;2022-12-07T07:32:43;102240.03;;;4.09;80.39
71424;BME280;59240;51.370;-0.486;2022-12-07T07:35:09;102256.34;;;4.08;80.91
71424;BME280;59240;51.370;-0.486;2022-12-07T07:37:36;102221.47;;;3.91;80.85
71424;BME280;59240;51.370;-0.486;2022-12-07T07:40:03;102243.22;;;3.99;79.84
71424;BME280;59240;51.370;-0.486;2022-12-07T07:42:30;102224.63;;;3.80;80.18
71424;BME280;59240;51.370;-0.486;2022-12-07T07:44:57;102236.78;;;3.84;80.68
71424;BME280;59240;51.370;-0.486;2022-12-07T07:47:23;102228.69;;;3.72;80.67
71424;BME280;59240;51.370;-0.486;2022-12-07T07:49:50;102246.06;;;3.79;80.07
71424;BME280;59240;51.370;-0.486;2022-12-07T07:52:16;102225.81;;;3.63;80.05
71424;BME280;59240;51.370;-0.486;2022-12-07T07:54:43;102242.31;;;3.68;80.86
71424;BME280;59240;51.370;-0.486;2022-12-07T07:57:09;102230.97;;;3.63;79.79
71424;BME280;59240;51.370;-0.486;2022-12-07T07:59:36;102235.03;;;3.55;80.22
71424;BME280;59240;51.370;-0.486;2022-12-07T08:02:02;102207.78;;;3.35;80.34
71424;BME280;59240;51.370;-0.486;2022-12-07T08:04:29;102239.91;;;3.46;80.58
71424;BME280;59240;51.370;-0.486;2022-12-07T08:06:56;102199.53;;;3.16;80.36
71424;BME280;59240;51.370;-0.486;2022-12-07T08:09:23;102214.22;;;3.20;80.45
71424;BME280;59240;51.370;-0.486;2022-12-07T08:11:49;102233.56;;;3.35;80.25
71424;BME280;59240;51.370;-0.486;2022-12-07T08:14:16;102244.53;;;3.29;80.61
71424;BME280;59240;51.370;-0.486;2022-12-07T08:16:42;102231.34;;;3.18;80.76
71424;BME280;59240;51.370;-0.486;2022-12-07T08:19:09;102233.09;;;3.19;80.95
71424;BME280;59240;51.370;-0.486;2022-12-07T08:21:37;102234.63;;;3.14;80.85
71424;BME280;59240;51.370;-0.486;2022-12-07T08:24:03;102205.81;;;2.99;80.79
71424;BME280;59240;51.370;-0.486;2022-12-07T08:26:30;102243.09;;;3.10;80.93
71424;BME280;59240;51.370;-0.486;2022-12-07T08:28:57;102238.59;;;3.03;80.48
71424;BME280;59240;51.370;-0.486;2022-12-07T08:31:23;102251.53;;;3.06;80.61
71424;BME280;59240;51.370;-0.486;2022-12-07T08:33:50;102247.94;;;3.01;81.03
71424;BME280;59240;51.370;-0.486;2022-12-07T08:36:17;102245.31;;;2.99;81.15
71424;BME280;59240;51.370;-0.486;2022-12-07T08:38:44;102251.44;;;3.03;81.27
71424;BME280;59240;51.370;-0.486;2022-12-07T08:41:31;102237.25;;;2.89;81.19
71424;BME280;59240;51.370;-0.486;2022-12-07T08:43:57;102256.47;;;3.00;80.69
71424;BME280;59240;51.370;-0.486;2022-12-07T08:46:29;102227.47;;;2.79;81.86
71424;BME280;59240;51.370;-0.486;2022-12-07T08:51:36;102214.41;;;2.72;81.28
71424;BME280;59240;51.370;-0.486;2022-12-07T08:54:05;102228.50;;;2.84;81.38
71424;BME280;59240;51.370;-0.486;2022-12-07T08:56:33;102246.09;;;2.97;81.20
71424;BME280;59240;51.370;-0.486;2022-12-07T08:59:01;102225.94;;;2.84;82.61
71424;BME280;59240;51.370;-0.486;2022-12-07T09:01:28;102244.44;;;2.99;81.90
71424;BME280;59240;51.370;-0.486;2022-12-07T09:03:55;102237.44;;;2.95;81.48
71424;BME280;59240;51.370;-0.486;2022-12-07T09:06:22;102231.56;;;2.99;81.30
71424;BME280;59240;51.370;-0.486;2022-12-07T09:08:51;102235.06;;;3.01;81.34
71424;BME280;59240;51.370;-0.486;2022-12-07T09:11:20;102216.66;;;2.89;80.88
71424;BME280;59240;51.370;-0.486;2022-12-07T09:13:54;102237.75;;;3.04;81.56
71424;BME280;59240;51.370;-0.486;2022-12-07T09:16:20;102245.50;;;3.06;81.39
71424;BME280;59240;51.370;-0.486;2022-12-07T09:18:47;102240.28;;;3.03;81.52
71424;BME280;59240;51.370;-0.486;2022-12-07T09:21:13;102237.63;;;3.01;80.96
71424;BME280;59240;51.370;-0.486;2022-12-07T09:23:41;102249.94;;;3.10;81.12
71424;BME280;59240;51.370;-0.486;2022-12-07T09:26:08;102228.22;;;3.01;81.15
71424;BME280;59240;51.370;-0.486;2022-12-07T09:28:36;102238.88;;;3.12;80.96
71424;BME280;59240;51.370;-0.486;2022-12-07T09:31:03;102250.06;;;3.14;80.94
71424;BME280;59240;51.370;-0.486;2022-12-07T09:33:58;102236.28;;;3.12;80.90
71424;BME280;59240;51.370;-0.486;2022-12-07T09:36:26;102241.72;;;3.21;80.88
71424;BME280;59240;51.370;-0.486;2022-12-07T09:38:53;102242.50;;;3.19;81.00
71424;BME280;59240;51.370;-0.486;2022-12-07T09:41:21;102234.00;;;3.21;81.03
71424;BME280;59240;51.370;-0.486;2022-12-07T09:43:48;102240.13;;;3.25;80.80
71424;BME280;59240;51.370;-0.486;2022-12-07T09:46:16;102239.38;;;3.29;80.94
71424;BME280;59240;51.370;-0.486;2022-12-07T09:48:45;102247.25;;;3.34;81.33
71424;BME280;59240;51.370;-0.486;2022-12-07T09:51:18;102254.16;;;3.35;80.74
71424;BME280;59240;51.370;-0.486;2022-12-07T09:53:54;102250.84;;;3.39;80.69
71424;BME280;59240;51.370;-0.486;2022-12-07T09:56:22;102240.53;;;3.37;81.02
71424;BME280;59240;51.370;-0.486;2022-12-07T09:58:58;102247.66;;;3.46;80.70
71424;BME280;59240;51.370;-0.486;2022-12-07T10:01:29;102245.22;;;3.50;80.57
71424;BME280;59240;51.370;-0.486;2022-12-07T10:04:08;102225.97;;;3.39;80.45
71424;BME280;59240;51.370;-0.486;2022-12-07T10:06:35;102232.34;;;3.50;80.59
71424;BME280;59240;51.370;-0.486;2022-12-07T10:09:09;102212.31;;;3.42;80.26
71424;BME280;59240;51.370;-0.486;2022-12-07T10:14:27;102227.59;;;3.64;80.18
71424;BME280;59240;51.370;-0.486;2022-12-07T10:17:37;102243.41;;;3.76;80.28
71424;BME280;59240;51.370;-0.486;2022-12-07T10:25:22;102188.19;;;3.68;79.89
71424;BME280;59240;51.370;-0.486;2022-12-07T10:30:58;102212.19;;;3.97;79.40
71424;BME280;59240;51.370;-0.486;2022-12-07T10:33:33;102206.28;;;4.00;78.58
71424;BME280;59240;51.370;-0.486;2022-12-07T10:36:16;102170.69;;;3.88;79.62
71424;BME280;59240;51.370;-0.486;2022-12-07T10:38:46;102196.13;;;4.06;78.38
71424;BME280;59240;51.370;-0.486;2022-12-07T10:41:13;102197.19;;;4.14;79.08
71424;BME280;59240;51.370;-0.486;2022-12-07T10:43:51;102193.75;;;4.14;79.52
71424;BME280;59240;51.370;-0.486;2022-12-07T10:49:32;102179.50;;;4.26;79.00
71424;BME280;59240;51.370;-0.486;2022-12-07T11:03:45;102182.16;;;4.64;76.33
71424;BME280;59240;51.370;-0.486;2022-12-07T11:06:14;102172.13;;;4.76;77.56
71424;BME280;59240;51.370;-0.486;2022-12-07T11:09:16;102167.41;;;4.94;76.98
71424;BME280;59240;51.370;-0.486;2022-12-07T11:20:41;102170.25;;;5.44;76.84
71424;BME280;59240;51.370;-0.486;2022-12-07T11:26:06;102150.47;;;5.46;77.26
71424;BME280;59240;51.370;-0.486;2022-12-07T11:33:46;102136.22;;;5.65;77.14
71424;BME280;59240;51.370;-0.486;2022-12-07T11:36:18;102127.75;;;5.74;75.22
71424;BME280;59240;51.370;-0.486;2022-12-07T11:38:57;102094.81;;;5.64;74.26
71424;BME280;59240;51.370;-0.486;2022-12-07T11:41:34;102118.56;;;5.90;75.81
71424;BME280;59240;51.370;-0.486;2022-12-07T11:44:07;102125.75;;;6.03;72.46
71424;BME280;59240;51.370;-0.486;2022-12-07T11:46:58;102121.69;;;6.17;75.13
71424;BME280;59240;51.370;-0.486;2022-12-07T11:50:08;102111.41;;;6.22;73.28
71424;BME280;59240;51.370;-0.486;2022-12-07T11:52:53;102106.13;;;6.16;71.55
71424;BME280;59240;51.370;-0.486;2022-12-07T11:55:29;102093.16;;;6.13;74.69
71424;BME280;59240;51.370;-0.486;2022-12-07T11:58:09;102115.06;;;6.33;72.96
71424;BME280;59240;51.370;-0.486;2022-12-07T12:00:41;102115.31;;;6.48;74.24
71424;BME280;59240;51.370;-0.486;2022-12-07T12:03:23;102109.38;;;6.54;71.81
71424;BME280;59240;51.370;-0.486;2022-12-07T12:05:56;102094.56;;;6.45;74.33
71424;BME280;59240;51.370;-0.486;2022-12-07T12:08:46;102102.25;;;6.39;73.12
71424;BME280;59240;51.370;-0.486;2022-12-07T12:14:59;102096.84;;;6.25;71.34
71424;BME280;59240;51.370;-0.486;2022-12-07T12:17:56;102088.97;;;6.21;71.61
71424;BME280;59240;51.370;-0.486;2022-12-07T12:20:31;102068.03;;;6.06;73.36
71424;BME280;59240;51.370;-0.486;2022-12-07T12:26:06;102077.69;;;6.16;74.37
71424;BME280;59240;51.370;-0.486;2022-12-07T12:28:40;102056.19;;;6.20;72.28
71424;BME280;59240;51.370;-0.486;2022-12-07T12:33:50;102053.97;;;6.43;72.65
71424;BME280;59240;51.370;-0.486;2022-12-07T12:36:42;102054.91;;;6.46;72.70
71424;BME280;59240;51.370;-0.486;2022-12-07T12:39:16;102052.31;;;6.48;72.49
71424;BME280;59240;51.370;-0.486;2022-12-07T12:46:53;102053.44;;;6.65;69.85
71424;BME280;59240;51.370;-0.486;2022-12-07T12:54:36;102021.38;;;6.57;71.18
71424;BME280;59240;51.370;-0.486;2022-12-07T12:57:32;102025.84;;;6.67;70.73
71424;BME280;59240;51.370;-0.486;2022-12-07T13:00:03;102020.66;;;6.66;71.19
71424;BME280;59240;51.370;-0.486;2022-12-07T13:05:19;102011.69;;;6.42;71.78
71424;BME280;59240;51.370;-0.486;2022-12-07T13:10:34;102002.28;;;6.49;68.91
71424;BME280;59240;51.370;-0.486;2022-12-07T13:15:42;101999.81;;;6.56;72.09
71424;BME280;59240;51.370;-0.486;2022-12-07T13:21:01;102010.31;;;6.66;71.48
71424;BME280;59240;51.370;-0.486;2022-12-07T13:23:32;102004.22;;;6.64;70.88
71424;BME280;59240;51.370;-0.486;2022-12-07T13:26:04;101999.88;;;6.60;71.36
71424;BME280;59240;51.370;-0.486;2022-12-07T13:34:03;101971.19;;;6.46;71.78
71424;BME280;59240;51.370;-0.486;2022-12-07T13:36:38;101983.47;;;6.61;69.97
71424;BME280;59240;51.370;-0.486;2022-12-07T13:41:44;101962.97;;;6.17;72.04
71424;BME280;59240;51.370;-0.486;2022-12-07T13:44:13;101963.84;;;6.17;70.89
71424;BME280;59240;51.370;-0.486;2022-12-07T13:49:22;101950.50;;;6.49;69.14
71424;BME280;59240;51.370;-0.486;2022-12-07T13:51:49;101951.38;;;6.49;71.50
71424;BME280;59240;51.370;-0.486;2022-12-07T13:54:17;101947.84;;;6.43;70.58
71424;BME280;59240;51.370;-0.486;2022-12-07T13:56:48;101935.66;;;6.34;69.74
71424;BME280;59240;51.370;-0.486;2022-12-07T13:59:19;101936.59;;;6.41;69.59
71424;BME280;59240;51.370;-0.486;2022-12-07T14:01:47;101930.47;;;6.34;70.92
71424;BME280;59240;51.370;-0.486;2022-12-07T14:04:33;101937.28;;;6.29;68.78
71424;BME280;59240;51.370;-0.486;2022-12-07T14:07:01;101928.59;;;6.24;69.84
71424;BME280;59240;51.370;-0.486;2022-12-07T14:10:03;101932.94;;;6.25;69.73
71424;BME280;59240;51.370;-0.486;2022-12-07T14:12:32;101919.91;;;6.19;71.13
71424;BME280;59240;51.370;-0.486;2022-12-07T14:15:00;101931.22;;;6.25;71.20
71424;BME280;59240;51.370;-0.486;2022-12-07T14:17:29;101937.22;;;6.24;69.44
71424;BME280;59240;51.370;-0.486;2022-12-07T14:19:57;101923.38;;;6.21;70.45
71424;BME280;59240;51.370;-0.486;2022-12-07T14:22:29;101890.41;;;6.05;71.01
71424;BME280;59240;51.370;-0.486;2022-12-07T14:25:09;101925.13;;;6.22;70.42
71424;BME280;59240;51.370;-0.486;2022-12-07T14:27:39;101926.84;;;6.23;70.54
71424;BME280;59240;51.370;-0.486;2022-12-07T14:30:17;101923.38;;;6.21;70.07
71424;BME280;59240;51.370;-0.486;2022-12-07T14:32:44;101918.22;;;6.21;70.36
71424;BME280;59240;51.370;-0.486;2022-12-07T14:35:16;101916.47;;;6.20;69.61
71424;BME280;59240;51.370;-0.486;2022-12-07T14:37:45;101907.81;;;6.18;70.76
71424;BME280;59240;51.370;-0.486;2022-12-07T14:40:19;101908.72;;;6.21;70.27
71424;BME280;59240;51.370;-0.486;2022-12-07T14:42:48;101902.69;;;6.21;69.26
71424;BME280;59240;51.370;-0.486;2022-12-07T14:45:19;101854.88;;;5.93;70.52
71424;BME280;59240;51.370;-0.486;2022-12-07T14:47:46;101894.03;;;6.19;70.61
71424;BME280;59240;51.370;-0.486;2022-12-07T14:50:38;101902.66;;;6.18;69.96
71424;BME280;59240;51.370;-0.486;2022-12-07T14:53:35;101897.41;;;6.15;69.63
71424;BME280;59240;51.370;-0.486;2022-12-07T14:56:03;101899.06;;;6.10;70.81
71424;BME280;59240;51.370;-0.486;2022-12-07T14:58:32;101891.97;;;5.96;70.54
71424;BME280;59240;51.370;-0.486;2022-12-07T15:00:59;101894.53;;;5.95;69.43
71424;BME280;59240;51.370;-0.486;2022-12-07T15:03:26;101881.53;;;5.90;69.96
71424;BME280;59240;51.370;-0.486;2022-12-07T15:05:53;101879.63;;;5.80;70.13
71424;BME280;59240;51.370;-0.486;2022-12-07T15:08:19;101882.63;;;5.52;71.75
71424;BME280;59240;51.370;-0.486;2022-12-07T15:10:46;101880.78;;;5.44;72.17
71424;BME280;59240;51.370;-0.486;2022-12-07T15:13:13;101884.06;;;5.34;73.11
71424;BME280;59240;51.370;-0.486;2022-12-07T15:15:58;101873.78;;;5.37;72.61